Time;durP1;ratioP1;P1;durP2;ratioP2;P2;SDS_P1;SDS_P2;PMS_P1;PMS_P2;Temp;Humidity;BMP_temperature;BMP_pressure;BME280_temperature;BME280_humidity;BME280_pressure;Samples;Min_cycle;Max_cycle;Signal;HPM_P1;HPM_P2
2022/10/05 03:02:48;;;;;;;;;;;11.70;99.90;;;;;;5146167;23;19932;-69
2022/10/05 03:05:20;;;;;;;;;;;11.80;99.90;;;;;;5010483;28;19925;-70
2022/10/05 03:07:50;;;;;;;;;;;11.80;99.90;;;;;;5010770;28;19957;-71
2022/10/05 03:10:22;;;;;;;;;;;11.90;99.90;;;;;;5010224;28;20315;-71
2022/10/05 03:12:52;;;;;;;;;;;11.90;99.90;;;;;;4993537;28;19973;-69
2022/10/05 03:15:42;;;;;;;;;;;12.00;99.90;;;;;;4990972;28;19926;-71
2022/10/05 03:18:13;;;;;;;;;;;12.00;99.90;;;;;;4984433;28;19926;-70
2022/10/05 03:20:44;;;;;;;;;;;12.00;99.90;;;;;;4990002;28;19926;-70
2022/10/05 03:23:16;;;;;;;;;;;11.90;99.90;;;;;;4990485;28;19933;-70
2022/10/05 03:26:01;;;;;;;;;;;11.90;99.90;;;;;;4991138;28;19932;-70
2022/10/05 03:28:31;;;;;;;;;;;12.00;99.90;;;;;;4990589;28;19973;-70
2022/10/05 03:31:02;;;;;;;;;;;12.10;99.90;;;;;;4990332;28;20388;-68
2022/10/05 03:33:38;;;;;;;;;;;12.10;99.90;;;;;;4990140;28;19948;-70
2022/10/05 03:36:09;;;;;;;;;;;12.20;99.90;;;;;;4992162;28;19961;-70
2022/10/05 03:38:40;;;;;;;;;;;12.20;99.90;;;;;;4994880;28;19930;-70
2022/10/05 03:41:12;;;;;;;;;;;12.30;99.90;;;;;;4994280;28;20016;-70
2022/10/05 03:44:00;;;;;;;;;;;12.40;99.90;;;;;;4994407;28;19961;-70
2022/10/05 03:46:32;;;;;;;;;;;12.50;99.90;;;;;;4988196;28;19926;-70
2022/10/05 03:49:04;;;;;;;;;;;12.50;99.90;;;;;;4994474;28;19926;-69
2022/10/05 03:51:32;;;;;;;;;;;12.60;99.90;;;;;;4994376;28;19926;-68
2022/10/05 03:54:03;;;;;;;;;;;12.60;99.90;;;;;;4994497;28;19926;-70
2022/10/05 03:56:33;;;;;;;;;;;12.60;99.90;;;;;;4994297;28;19931;-69
2022/10/05 03:59:02;;;;;;;;;;;12.60;99.90;;;;;;4994074;28;19926;-69
2022/10/05 04:01:33;;;;;;;;;;;12.60;99.90;;;;;;4994172;28;19980;-70
2022/10/05 04:04:03;;;;;;;;;;;12.60;99.90;;;;;;4993649;28;19930;-69
2022/10/05 04:06:34;;;;;;;;;;;12.50;99.90;;;;;;4994339;28;19933;-69
2022/10/05 04:09:02;;;;;;;;;;;12.50;99.90;;;;;;4993758;28;19937;-69
2022/10/05 04:11:31;;;;;;;;;;;12.50;99.90;;;;;;4993963;28;19933;-69
2022/10/05 04:14:01;;;;;;;;;;;12.50;99.90;;;;;;4993657;28;20025;-68
2022/10/05 04:16:29;;;;;;;;;;;12.50;99.90;;;;;;4993990;28;19926;-69
2022/10/05 04:19:01;;;;;;;;;;;12.50;99.90;;;;;;4993838;28;19926;-70
2022/10/05 04:21:31;;;;;;;;;;;12.50;99.90;;;;;;4993825;28;19980;-70
2022/10/05 04:23:59;;;;;;;;;;;12.50;99.90;;;;;;4993505;28;19966;-70
2022/10/05 04:26:30;;;;;;;;;;;12.50;99.90;;;;;;4993913;28;20368;-70
2022/10/05 04:29:00;;;;;;;;;;;12.50;99.90;;;;;;4993658;28;20400;-69
2022/10/05 04:31:37;;;;;;;;;;;12.40;99.90;;;;;;4993696;28;20012;-70
2022/10/05 04:34:10;;;;;;;;;;;12.40;99.90;;;;;;4993489;28;20061;-70
2022/10/05 04:36:44;;;;;;;;;;;12.30;99.90;;;;;;4993916;28;19925;-70
2022/10/05 04:39:17;;;;;;;;;;;12.30;99.90;;;;;;4993736;28;19926;-71
2022/10/05 04:41:50;;;;;;;;;;;12.20;99.90;;;;;;4993404;28;19972;-70
2022/10/05 04:44:24;;;;;;;;;;;12.10;99.90;;;;;;4993183;28;20359;-69
2022/10/05 04:47:00;;;;;;;;;;;12.00;99.90;;;;;;4993052;28;20319;-69
2022/10/05 04:49:34;;;;;;;;;;;12.00;99.90;;;;;;4992900;28;19926;-69
2022/10/05 04:52:06;;;;;;;;;;;11.90;99.90;;;;;;4981257;28;19934;-69
2022/10/05 04:54:43;;;;;;;;;;;11.90;99.90;;;;;;4973679;28;20385;-69
2022/10/05 04:57:13;;;;;;;;;;;11.90;99.90;;;;;;4973806;28;20006;-69
2022/10/05 04:59:59;;;;;;;;;;;11.90;99.90;;;;;;4973700;28;19926;-68
2022/10/05 05:02:32;;;;;;;;;;;11.90;99.90;;;;;;4978992;28;20344;-69
2022/10/05 05:05:16;;;;;;;;;;;11.90;99.90;;;;;;4994882;28;19965;-70
2022/10/05 05:07:49;;;;;;;;;;;11.90;99.90;;;;;;4999138;28;19925;-70
2022/10/05 05:10:38;;;;;;;;;;;12.00;99.90;;;;;;4992838;28;19929;-70
2022/10/05 05:13:15;;;;;;;;;;;12.00;99.90;;;;;;4973429;28;19976;-69
2022/10/05 05:15:47;;;;;;;;;;;12.10;99.90;;;;;;4973350;28;19933;-68
2022/10/05 05:18:28;;;;;;;;;;;12.10;99.90;;;;;;4973635;28;20094;-70
2022/10/05 05:21:01;;;;;;;;;;;12.10;99.90;;;;;;4988737;28;19925;-70
2022/10/05 05:23:35;;;;;;;;;;;12.10;99.90;;;;;;4992483;28;19933;-68
2022/10/05 05:26:06;;;;;;;;;;;12.10;99.90;;;;;;4992491;28;20363;-70
2022/10/05 05:28:39;;;;;;;;;;;12.10;99.90;;;;;;4992824;28;19926;-70
2022/10/05 05:31:10;;;;;;;;;;;12.10;99.90;;;;;;4992232;28;19938;-69
2022/10/05 05:33:43;;;;;;;;;;;12.00;99.90;;;;;;4992077;28;19926;-70
2022/10/05 05:36:18;;;;;;;;;;;12.00;99.90;;;;;;4991247;28;19926;-70
2022/10/05 05:38:51;;;;;;;;;;;12.00;99.90;;;;;;4972475;28;20353;-69
2022/10/05 05:41:23;;;;;;;;;;;12.00;99.90;;;;;;4973055;28;19926;-70
2022/10/05 05:43:55;;;;;;;;;;;12.00;99.90;;;;;;4972938;28;19926;-69
2022/10/05 05:46:25;;;;;;;;;;;12.00;99.90;;;;;;4973103;28;19926;-67
2022/10/05 05:48:53;;;;;;;;;;;12.00;99.90;;;;;;4971698;28;19958;-70
2022/10/05 05:51:23;;;;;;;;;;;12.10;99.90;;;;;;4972863;28;19926;-70
2022/10/05 05:53:54;;;;;;;;;;;12.10;99.90;;;;;;4972482;28;20024;-70
2022/10/05 05:56:24;;;;;;;;;;;12.10;99.90;;;;;;4972707;28;19930;-70
2022/10/05 05:58:53;;;;;;;;;;;12.10;99.90;;;;;;4971525;28;20031;-70
2022/10/05 06:01:23;;;;;;;;;;;12.10;99.90;;;;;;4999680;28;19926;-70
2022/10/05 06:03:53;;;;;;;;;;;12.20;99.90;;;;;;4999455;28;19948;-69
2022/10/05 06:06:24;;;;;;;;;;;12.20;99.90;;;;;;4996710;28;20319;-69
2022/10/05 06:08:54;;;;;;;;;;;12.20;99.90;;;;;;4991734;28;19961;-70
2022/10/05 06:11:31;;;;;;;;;;;12.20;99.90;;;;;;4991781;28;20024;-69
2022/10/05 06:14:00;;;;;;;;;;;12.20;99.90;;;;;;5007840;28;19937;-67
2022/10/05 06:16:30;;;;;;;;;;;12.30;99.90;;;;;;4991675;28;19926;-69
2022/10/05 06:18:59;;;;;;;;;;;12.30;99.90;;;;;;4973373;28;20016;-68
2022/10/05 06:21:28;;;;;;;;;;;12.40;99.90;;;;;;4971991;28;19926;-68
2022/10/05 06:23:59;;;;;;;;;;;12.40;99.90;;;;;;4971925;28;19926;-68
2022/10/05 06:26:34;;;;;;;;;;;12.50;99.90;;;;;;4972144;28;20397;-66
2022/10/05 06:29:03;;;;;;;;;;;12.50;99.90;;;;;;4971633;28;20348;-69
2022/10/05 06:31:45;;;;;;;;;;;12.50;99.90;;;;;;4971707;28;19977;-69
2022/10/05 06:34:20;;;;;;;;;;;12.60;99.90;;;;;;4976372;28;19927;-69
2022/10/05 06:36:50;;;;;;;;;;;12.60;99.90;;;;;;4972088;28;20020;-69
2022/10/05 06:39:29;;;;;;;;;;;12.60;99.90;;;;;;4971609;28;19926;-70
2022/10/05 06:42:04;;;;;;;;;;;12.70;99.90;;;;;;4972015;28;19934;-70
2022/10/05 06:45:14;;;;;;;;;;;12.70;99.90;;;;;;4972027;28;19937;-70
2022/10/05 06:47:58;;;;;;;;;;;12.70;99.90;;;;;;4971483;28;19933;-69
2022/10/05 06:50:58;;;;;;;;;;;12.80;99.90;;;;;;4984330;28;20375;-69
2022/10/05 06:53:44;;;;;;;;;;;12.90;99.90;;;;;;4987399;28;19981;-71
2022/10/05 06:56:14;;;;;;;;;;;12.90;99.90;;;;;;4971526;28;19926;-70
2022/10/05 06:58:45;;;;;;;;;;;13.00;99.90;;;;;;4971436;28;19932;-70
2022/10/05 07:01:18;;;;;;;;;;;13.00;99.90;;;;;;4972948;28;20021;-70
2022/10/05 07:03:54;;;;;;;;;;;13.00;99.90;;;;;;4990767;28;19926;-66
2022/10/05 07:06:25;;;;;;;;;;;13.10;99.90;;;;;;4990663;28;19926;-68
2022/10/05 07:08:59;;;;;;;;;;;13.10;99.90;;;;;;4991149;28;20020;-66
2022/10/05 07:11:33;;;;;;;;;;;13.10;99.90;;;;;;4980895;28;19926;-68
2022/10/05 07:14:07;;;;;;;;;;;13.20;99.90;;;;;;4990719;28;19941;-68
2022/10/05 07:16:38;;;;;;;;;;;13.20;99.90;;;;;;4990944;28;19926;-68
2022/10/05 07:19:11;;;;;;;;;;;13.20;99.90;;;;;;4990854;28;20381;-68
2022/10/05 07:21:42;;;;;;;;;;;13.30;99.90;;;;;;4991451;28;19930;-66
2022/10/05 07:24:19;;;;;;;;;;;13.40;99.90;;;;;;4991253;28;19926;-65
2022/10/05 07:26:50;;;;;;;;;;;13.40;99.90;;;;;;4991357;28;19925;-66
2022/10/05 07:29:23;;;;;;;;;;;13.50;99.90;;;;;;4990718;28;19926;-70
2022/10/05 07:31:56;;;;;;;;;;;13.50;99.90;;;;;;4990905;28;19929;-69
2022/10/05 07:34:26;;;;;;;;;;;13.60;99.90;;;;;;4990742;28;19933;-69
2022/10/05 07:39:43;;;;;;;;;;;13.80;99.90;;;;;;4990175;28;19930;-70
2022/10/05 07:42:17;;;;;;;;;;;13.90;99.90;;;;;;4975949;28;20012;-72
2022/10/05 07:44:48;;;;;;;;;;;14.00;99.90;;;;;;4988733;28;20385;-70
2022/10/05 07:47:18;;;;;;;;;;;14.10;99.90;;;;;;5010943;28;19925;-70
2022/10/05 07:49:47;;;;;;;;;;;14.20;99.90;;;;;;5010500;28;19925;-70
2022/10/05 07:52:16;;;;;;;;;;;14.30;99.90;;;;;;5010503;28;19976;-70
2022/10/05 07:54:45;;;;;;;;;;;14.30;99.90;;;;;;5010777;28;20311;-70
2022/10/05 07:57:20;;;;;;;;;;;14.40;99.90;;;;;;5011096;28;19933;-70
2022/10/05 07:59:52;;;;;;;;;;;14.50;99.90;;;;;;5010541;28;19957;-70
2022/10/05 08:02:24;;;;;;;;;;;14.60;99.90;;;;;;5010454;28;20367;-70
2022/10/05 08:04:53;;;;;;;;;;;14.80;99.90;;;;;;4992902;28;19930;-70
2022/10/05 08:07:20;;;;;;;;;;;15.10;99.90;;;;;;4991264;28;19930;-69
2022/10/05 08:09:50;;;;;;;;;;;15.30;99.90;;;;;;4991315;28;19984;-70
2022/10/05 08:12:29;;;;;;;;;;;15.50;99.90;;;;;;4991138;28;19930;-70
2022/10/05 08:14:57;;;;;;;;;;;15.60;99.90;;;;;;4991594;28;19932;-72
2022/10/05 08:17:30;;;;;;;;;;;15.70;99.90;;;;;;5007608;28;19925;-71
2022/10/05 08:20:01;;;;;;;;;;;15.80;99.90;;;;;;4991385;28;19972;-70
2022/10/05 08:22:31;;;;;;;;;;;15.90;99.90;;;;;;4992667;28;19985;-70
2022/10/05 08:24:59;;;;;;;;;;;15.90;99.90;;;;;;4994986;28;19926;-71
2022/10/05 08:27:30;;;;;;;;;;;15.90;99.90;;;;;;4995019;28;19926;-70
2022/10/05 08:30:00;;;;;;;;;;;16.00;99.90;;;;;;4994542;28;19984;-70
2022/10/05 08:32:29;;;;;;;;;;;16.20;99.90;;;;;;4994794;28;19932;-69
2022/10/05 08:34:58;;;;;;;;;;;16.20;99.90;;;;;;4994666;28;19926;-71
2022/10/05 08:37:27;;;;;;;;;;;16.20;99.90;;;;;;4994784;28;20029;-71
2022/10/05 08:39:55;;;;;;;;;;;16.20;99.90;;;;;;4994474;28;20025;-70
2022/10/05 08:42:36;;;;;;;;;;;16.10;99.90;;;;;;4994182;28;19933;-71
2022/10/05 08:45:18;;;;;;;;;;;16.10;99.90;;;;;;4994658;28;20347;-71
2022/10/05 08:48:12;;;;;;;;;;;16.20;99.90;;;;;;4998379;28;19955;-71
2022/10/05 08:50:52;;;;;;;;;;;16.20;99.90;;;;;;4964799;28;19980;-70
2022/10/05 08:53:24;;;;;;;;;;;16.30;99.90;;;;;;4993840;28;19926;-70
2022/10/05 08:56:04;;;;;;;;;;;16.30;99.90;;;;;;4993250;28;19984;-70
2022/10/05 08:58:36;;;;;;;;;;;16.40;99.90;;;;;;4993309;28;19929;-71
2022/10/05 09:01:07;;;;;;;;;;;16.40;99.90;;;;;;4992751;28;19925;-70
2022/10/05 09:03:52;;;;;;;;;;;16.30;99.90;;;;;;4981540;28;19926;-69
2022/10/05 09:06:26;;;;;;;;;;;16.40;99.90;;;;;;4993497;28;19930;-72
2022/10/05 09:09:23;;;;;;;;;;;16.50;99.90;;;;;;4992867;28;20369;-70
2022/10/05 09:11:56;;;;;;;;;;;16.50;99.90;;;;;;4978695;28;19926;-70
2022/10/05 09:14:28;;;;;;;;;;;16.60;99.90;;;;;;4990143;28;19930;-70
2022/10/05 09:17:06;;;;;;;;;;;16.60;99.90;;;;;;4991420;28;19925;-69
2022/10/05 09:19:52;;;;;;;;;;;16.60;99.90;;;;;;4991037;28;19933;-70
2022/10/05 09:22:37;;;;;;;;;;;16.70;99.90;;;;;;4991320;28;20285;-71
2022/10/05 09:25:13;;;;;;;;;;;16.90;99.90;;;;;;4963361;28;19925;-70
2022/10/05 09:27:44;;;;;;;;;;;16.90;99.90;;;;;;4991632;28;20392;-70
2022/10/05 09:30:23;;;;;;;;;;;17.00;99.90;;;;;;4992119;28;19930;-70
2022/10/05 09:33:04;;;;;;;;;;;17.10;99.90;;;;;;4991556;28;19965;-70
2022/10/05 09:35:41;;;;;;;;;;;17.30;99.90;;;;;;4988427;28;19936;-70
2022/10/05 09:38:16;;;;;;;;;;;17.40;99.90;;;;;;4992382;28;19933;-70
2022/10/05 09:40:56;;;;;;;;;;;17.60;99.90;;;;;;4991853;28;20362;-70
2022/10/05 09:43:39;;;;;;;;;;;17.70;99.90;;;;;;4991734;28;19928;-70
2022/10/05 09:46:14;;;;;;;;;;;17.80;99.90;;;;;;4991834;28;20308;-70
2022/10/05 09:49:00;;;;;;;;;;;17.80;99.90;;;;;;4992104;28;20475;-70
2022/10/05 09:51:44;;;;;;;;;;;17.80;99.90;;;;;;5008623;28;19925;-70
2022/10/05 09:54:29;;;;;;;;;;;17.80;99.90;;;;;;4991505;28;20495;-68
2022/10/05 09:57:08;;;;;;;;;;;17.80;99.90;;;;;;4974983;28;20011;-71
2022/10/05 09:59:59;;;;;;;;;;;17.90;99.90;;;;;;4972680;28;19934;-71
2022/10/05 10:02:41;;;;;;;;;;;17.80;99.90;;;;;;4972430;28;19934;-70
2022/10/05 10:05:22;;;;;;;;;;;17.90;99.90;;;;;;4972545;28;19926;-69
2022/10/05 10:07:55;;;;;;;;;;;18.00;99.90;;;;;;4940892;28;19926;-71
2022/10/05 10:10:30;;;;;;;;;;;18.10;99.90;;;;;;4974236;28;20042;-70
2022/10/05 10:13:06;;;;;;;;;;;18.10;99.90;;;;;;4991923;28;19926;-70
2022/10/05 10:15:42;;;;;;;;;;;18.20;99.90;;;;;;4992117;28;19934;-71
2022/10/05 10:18:18;;;;;;;;;;;18.40;99.90;;;;;;4992325;28;19953;-71
2022/10/05 10:21:15;;;;;;;;;;;18.50;99.90;;;;;;4991730;28;19925;-71
2022/10/05 10:23:59;;;;;;;;;;;18.70;99.90;;;;;;4897823;29;19927;-71
2022/10/05 10:26:46;;;;;;;;;;;19.20;99.90;;;;;;4980261;28;19930;-71
2022/10/05 10:29:33;;;;;;;;;;;19.40;99.90;;;;;;4991808;28;20428;-71
2022/10/05 10:32:08;;;;;;;;;;;22.60;99.90;;;;;;4992006;28;19926;-69
2022/10/05 10:34:50;;;;;;;;;;;25.00;99.90;;;;;;4991374;28;19926;-71
2022/10/05 10:37:37;;;;;;;;;;;27.20;99.90;;;;;;4992020;28;19929;-73
2022/10/05 10:40:22;;;;;;;;;;;28.80;99.90;;;;;;4991335;28;19933;-71
2022/10/05 10:42:58;;;;;;;;;;;29.40;99.90;;;;;;4991290;28;19934;-71
2022/10/05 10:45:37;;;;;;;;;;;28.50;99.90;;;;;;4991436;28;20372;-71
2022/10/05 10:48:04;;;;;;;;;;;29.60;99.90;;;;;;4991689;28;19930;-69
2022/10/05 10:50:46;;;;;;;;;;;29.30;99.90;;;;;;4991382;28;19926;-71
2022/10/05 10:53:28;;;;;;;;;;;30.40;99.90;;;;;;5023922;28;20404;-71
2022/10/05 10:56:02;;;;;;;;;;;29.00;99.90;;;;;;4991286;28;19929;-71
2022/10/05 10:58:44;;;;;;;;;;;30.30;99.90;;;;;;4990851;28;19933;-70
2022/10/05 11:01:19;;;;;;;;;;;32.00;99.90;;;;;;4988123;28;19930;-71
2022/10/05 11:03:57;;;;;;;;;;;31.00;99.90;;;;;;4990303;28;19926;-71
2022/10/05 11:06:44;;;;;;;;;;;30.60;99.90;;;;;;4991045;28;19929;-71
2022/10/05 11:09:17;;;;;;;;;;;32.30;99.90;;;;;;4990990;28;19934;-71
2022/10/05 11:11:56;;;;;;;;;;;32.30;99.90;;;;;;4991043;28;19926;-71
2022/10/05 11:14:44;;;;;;;;;;;31.00;99.90;;;;;;4991383;28;19976;-72
2022/10/05 11:17:22;;;;;;;;;;;31.80;99.90;;;;;;4986175;28;19932;-71
2022/10/05 11:20:01;;;;;;;;;;;32.70;99.90;;;;;;4990889;28;19926;-71
2022/10/05 11:22:49;;;;;;;;;;;33.10;99.90;;;;;;4991242;28;19941;-71
2022/10/05 11:25:33;;;;;;;;;;;33.60;99.90;;;;;;4986584;28;19925;-71
2022/10/05 11:28:08;;;;;;;;;;;32.90;99.90;;;;;;4991127;28;19937;-71
2022/10/05 11:30:49;;;;;;;;;;;30.10;99.90;;;;;;4991667;28;20028;-71
2022/10/05 11:33:39;;;;;;;;;;;31.90;99.90;;;;;;4991368;28;20388;-71
2022/10/05 11:36:29;;;;;;;;;;;31.30;99.90;;;;;;4984464;28;19926;-71
2022/10/05 11:39:21;;;;;;;;;;;33.90;99.90;;;;;;4971888;28;20356;-72
2022/10/05 11:42:01;;;;;;;;;;;34.40;99.90;;;;;;4971947;28;20030;-72
2022/10/05 11:44:49;;;;;;;;;;;33.20;99.90;;;;;;4972001;28;19926;-71
2022/10/05 11:47:20;;;;;;;;;;;30.70;99.90;;;;;;4965699;28;20401;-72
2022/10/05 11:49:48;;;;;;;;;;;30.80;99.90;;;;;;4972031;28;19926;-72
2022/10/05 11:52:19;;;;;;;;;;;30.40;99.90;;;;;;4971637;28;20324;-71
2022/10/05 11:55:06;;;;;;;;;;;30.50;99.90;;;;;;4971865;28;19926;-72
2022/10/05 11:57:37;;;;;;;;;;;32.60;99.90;;;;;;4973642;28;19985;-72
2022/10/05 12:00:11;;;;;;;;;;;35.10;99.90;;;;;;4975558;28;19954;-72
2022/10/05 12:02:51;;;;;;;;;;;34.50;99.90;;;;;;4975646;28;19926;-71
2022/10/05 12:05:21;;;;;;;;;;;32.10;99.90;;;;;;4975703;28;20019;-70
2022/10/05 12:07:55;;;;;;;;;;;31.40;99.90;;;;;;4975820;28;19926;-70
2022/10/05 12:10:31;;;;;;;;;;;31.80;99.90;;;;;;4975652;28;19934;-72
2022/10/05 12:13:04;;;;;;;;;;;31.00;99.90;;;;;;4975569;28;19933;-71
2022/10/05 12:15:35;;;;;;;;;;;30.20;99.90;;;;;;4975398;28;19927;-71
2022/10/05 12:18:07;;;;;;;;;;;32.60;99.90;;;;;;4975442;28;19926;-72
2022/10/05 12:20:38;;;;;;;;;;;32.90;99.90;;;;;;4975099;28;20443;-72
2022/10/05 12:23:10;;;;;;;;;;;32.50;99.90;;;;;;4976515;28;19926;-72
2022/10/05 12:25:41;;;;;;;;;;;33.40;99.90;;;;;;4991964;28;19926;-72
2022/10/05 12:28:12;;;;;;;;;;;33.90;99.90;;;;;;4994323;28;19932;-71
2022/10/05 12:31:02;;;;;;;;;;;31.20;99.90;;;;;;4993879;28;19926;-71
2022/10/05 12:33:34;;;;;;;;;;;32.20;99.90;;;;;;4978944;28;19930;-72
2022/10/05 12:36:03;;;;;;;;;;;31.60;99.90;;;;;;4994112;28;19925;-73
2022/10/05 12:38:33;;;;;;;;;;;30.90;99.90;;;;;;4993712;28;19937;-73
2022/10/05 12:41:04;;;;;;;;;;;32.00;99.90;;;;;;4993030;28;19925;-73
2022/10/05 12:43:35;;;;;;;;;;;33.00;99.90;;;;;;4993278;28;19954;-72
2022/10/05 12:46:05;;;;;;;;;;;32.60;99.90;;;;;;4993574;28;19926;-70
2022/10/05 12:48:41;;;;;;;;;;;31.60;99.90;;;;;;4993370;28;19933;-72
2022/10/05 12:51:11;;;;;;;;;;;33.00;99.90;;;;;;4993178;28;19929;-72
2022/10/05 12:53:47;;;;;;;;;;;33.10;99.90;;;;;;4993422;28;19926;-71
2022/10/05 12:56:20;;;;;;;;;;;32.20;99.90;;;;;;4993009;28;19934;-73
2022/10/05 12:58:55;;;;;;;;;;;32.00;99.90;;;;;;4992060;28;20025;-73
2022/10/05 13:01:38;;;;;;;;;;;33.00;99.90;;;;;;4990663;28;19926;-72
2022/10/05 13:04:09;;;;;;;;;;;32.80;99.90;;;;;;4991178;28;19930;-72
2022/10/05 13:06:42;;;;;;;;;;;33.30;99.90;;;;;;4993201;28;19926;-73
2022/10/05 13:09:11;;;;;;;;;;;32.20;99.90;;;;;;4991361;28;19936;-72
2022/10/05 13:11:42;;;;;;;;;;;29.80;99.90;;;;;;4993407;28;20459;-71
2022/10/05 13:14:15;;;;;;;;;;;29.60;99.90;;;;;;5025530;28;19961;-72
2022/10/05 13:16:49;;;;;;;;;;;30.70;99.90;;;;;;4993020;28;19955;-72
2022/10/05 13:19:24;;;;;;;;;;;29.70;99.90;;;;;;4992465;28;20025;-73
2022/10/05 13:21:58;;;;;;;;;;;28.90;99.90;;;;;;4992697;28;19929;-72
2022/10/05 13:24:26;;;;;;;;;;;28.60;99.90;;;;;;4992618;28;19930;-72
2022/10/05 13:26:55;;;;;;;;;;;28.70;99.90;;;;;;4992814;28;20340;-71
2022/10/05 13:29:25;;;;;;;;;;;28.00;99.90;;;;;;4992246;28;19930;-71
2022/10/05 13:31:54;;;;;;;;;;;28.20;99.90;;;;;;4992511;28;19933;-72
2022/10/05 13:34:26;;;;;;;;;;;28.00;99.90;;;;;;4992159;28;20060;-73
2022/10/05 13:36:58;;;;;;;;;;;28.50;99.90;;;;;;4992564;28;19926;-71
2022/10/05 13:39:35;;;;;;;;;;;27.30;99.90;;;;;;4992105;28;19926;-71
2022/10/05 13:42:06;;;;;;;;;;;28.00;99.90;;;;;;4992401;28;19930;-72
2022/10/05 13:44:38;;;;;;;;;;;27.80;99.90;;;;;;4992077;28;20420;-71
2022/10/05 13:47:08;;;;;;;;;;;27.40;99.90;;;;;;4992373;28;19992;-70
2022/10/05 13:49:38;;;;;;;;;;;27.00;99.90;;;;;;4992021;28;20286;-70
2022/10/05 13:52:14;;;;;;;;;;;28.00;99.90;;;;;;4991523;28;19929;-69
2022/10/05 13:54:45;;;;;;;;;;;28.50;99.90;;;;;;4991862;28;20396;-69
2022/10/05 13:57:20;;;;;;;;;;;27.50;99.90;;;;;;4991778;28;19925;-70
2022/10/05 13:59:52;;;;;;;;;;;27.50;99.90;;;;;;4991700;28;19926;-70
2022/10/05 14:02:20;;;;;;;;;;;28.50;99.90;;;;;;4991743;28;20016;-69
2022/10/05 14:04:49;;;;;;;;;;;28.60;99.90;;;;;;4991970;28;19926;-69
2022/10/05 14:07:24;;;;;;;;;;;27.40;99.90;;;;;;4983423;28;19980;-71
2022/10/05 14:09:51;;;;;;;;;;;28.50;99.90;;;;;;4991965;28;20388;-69
2022/10/05 14:12:19;;;;;;;;;;;28.60;99.90;;;;;;4991644;28;19964;-71
2022/10/05 14:14:49;;;;;;;;;;;27.90;99.90;;;;;;4991584;28;19926;-71
2022/10/05 14:17:17;;;;;;;;;;;27.20;99.90;;;;;;4991181;28;19926;-70
2022/10/05 14:19:44;;;;;;;;;;;27.40;99.90;;;;;;4991142;28;19926;-69
2022/10/05 14:22:12;;;;;;;;;;;27.80;99.90;;;;;;4991323;28;19926;-70
2022/10/05 14:24:47;;;;;;;;;;;28.30;99.90;;;;;;4991493;28;19926;-71
2022/10/05 14:27:19;;;;;;;;;;;28.60;99.90;;;;;;4991726;28;19933;-71
2022/10/05 14:29:52;;;;;;;;;;;29.50;99.90;;;;;;4991454;28;19926;-70
2022/10/05 14:32:22;;;;;;;;;;;28.00;99.90;;;;;;4991508;28;19926;-71
2022/10/05 14:34:56;;;;;;;;;;;27.80;99.90;;;;;;4991720;28;19926;-71
2022/10/05 14:37:24;;;;;;;;;;;26.90;99.90;;;;;;4991440;28;19926;-71
2022/10/05 14:39:52;;;;;;;;;;;27.70;99.90;;;;;;4991090;28;19941;-70
2022/10/05 14:42:20;;;;;;;;;;;28.20;99.90;;;;;;4991189;28;20025;-71
2022/10/05 14:44:58;;;;;;;;;;;27.50;99.90;;;;;;4991376;28;20400;-71
2022/10/05 14:47:29;;;;;;;;;;;26.10;99.90;;;;;;4991387;28;19925;-70
2022/10/05 14:50:14;;;;;;;;;;;25.30;99.90;;;;;;4990964;28;19929;-71
2022/10/05 14:52:45;;;;;;;;;;;25.00;99.90;;;;;;4990935;28;19973;-70
2022/10/05 14:55:18;;;;;;;;;;;24.30;99.90;;;;;;4990829;28;19957;-70
2022/10/05 14:57:53;;;;;;;;;;;24.30;99.90;;;;;;4991303;28;19930;-70
2022/10/05 15:00:21;;;;;;;;;;;25.20;99.90;;;;;;4991186;28;19933;-70
2022/10/05 15:02:54;;;;;;;;;;;26.00;99.90;;;;;;4989129;23;20025;-69
2022/10/05 15:05:25;;;;;;;;;;;27.10;99.90;;;;;;4968944;28;19930;-69
2022/10/05 15:07:56;;;;;;;;;;;27.20;99.90;;;;;;4971347;28;19930;-67
2022/10/05 15:10:28;;;;;;;;;;;26.70;99.90;;;;;;4970776;28;19934;-69
2022/10/05 15:12:57;;;;;;;;;;;26.30;99.90;;;;;;4953071;28;19927;-68
2022/10/05 15:15:31;;;;;;;;;;;26.60;99.90;;;;;;4951945;29;20401;-70
2022/10/05 15:18:00;;;;;;;;;;;27.00;99.90;;;;;;4968260;28;19969;-67
2022/10/05 15:20:30;;;;;;;;;;;26.80;99.90;;;;;;4970445;28;19968;-67
2022/10/05 15:23:02;;;;;;;;;;;26.50;99.90;;;;;;4970627;28;20456;-67
2022/10/05 15:25:35;;;;;;;;;;;26.70;99.90;;;;;;4970715;28;19930;-66
2022/10/05 15:28:06;;;;;;;;;;;26.10;99.90;;;;;;4968724;28;20320;-65
2022/10/05 15:30:36;;;;;;;;;;;26.10;99.90;;;;;;4971854;28;19933;-68
2022/10/05 15:33:08;;;;;;;;;;;25.60;99.90;;;;;;4971060;28;20286;-67
2022/10/05 15:35:54;;;;;;;;;;;24.90;99.90;;;;;;4970954;28;20435;-67
2022/10/05 15:38:23;;;;;;;;;;;24.40;99.90;;;;;;4968911;28;20286;-68
2022/10/05 15:41:00;;;;;;;;;;;23.70;99.90;;;;;;4970873;28;19926;-73
2022/10/05 15:43:34;;;;;;;;;;;23.40;99.90;;;;;;4972683;28;19980;-67
2022/10/05 15:46:09;;;;;;;;;;;23.80;99.90;;;;;;4972930;28;19937;-68
2022/10/05 15:48:42;;;;;;;;;;;24.20;99.90;;;;;;4971786;28;20009;-68
2022/10/05 15:51:14;;;;;;;;;;;24.20;99.90;;;;;;4971546;28;19926;-67
2022/10/05 15:53:43;;;;;;;;;;;24.50;99.90;;;;;;4971637;28;19926;-67
2022/10/05 15:56:15;;;;;;;;;;;23.90;99.90;;;;;;4973389;28;20358;-68
2022/10/05 15:58:45;;;;;;;;;;;23.80;99.90;;;;;;4971756;28;20013;-67
2022/10/05 16:01:16;;;;;;;;;;;24.30;99.90;;;;;;4971590;28;20009;-68
2022/10/05 16:03:48;;;;;;;;;;;23.60;99.90;;;;;;4971547;28;19957;-68
2022/10/05 16:09:07;;;;;;;;;;;22.00;99.90;;;;;;4971476;28;20322;-66
2022/10/05 16:11:42;;;;;;;;;;;21.70;99.90;;;;;;4972050;28;19976;-67
2022/10/05 16:14:17;;;;;;;;;;;21.40;99.90;;;;;;4971970;28;19968;-68
2022/10/05 16:16:48;;;;;;;;;;;21.20;99.90;;;;;;4972960;28;19930;-66
2022/10/05 16:19:18;;;;;;;;;;;21.00;99.90;;;;;;4971683;28;20030;-67
2022/10/05 16:21:46;;;;;;;;;;;20.80;99.90;;;;;;4971708;28;19972;-67
2022/10/05 16:24:20;;;;;;;;;;;20.60;99.90;;;;;;4971398;28;19929;-69
2022/10/05 16:26:55;;;;;;;;;;;20.50;99.90;;;;;;4971421;28;19948;-67
2022/10/05 16:29:25;;;;;;;;;;;20.50;99.90;;;;;;4970357;28;19930;-68
2022/10/05 16:31:57;;;;;;;;;;;20.40;99.90;;;;;;4970514;28;19965;-67
2022/10/05 16:34:31;;;;;;;;;;;20.20;99.90;;;;;;4970163;28;20304;-67
2022/10/05 16:37:01;;;;;;;;;;;20.00;99.90;;;;;;4970757;28;19984;-66
2022/10/05 16:39:52;;;;;;;;;;;19.80;99.90;;;;;;4970372;28;19988;-69
2022/10/05 16:42:33;;;;;;;;;;;19.70;99.90;;;;;;4955493;28;19926;-66
2022/10/05 16:45:08;;;;;;;;;;;19.60;99.90;;;;;;4974159;28;20393;-65
2022/10/05 16:47:42;;;;;;;;;;;19.30;99.90;;;;;;4973889;28;20356;-65
2022/10/05 16:50:15;;;;;;;;;;;19.20;99.90;;;;;;4973919;28;19926;-65
2022/10/05 16:52:45;;;;;;;;;;;18.90;99.90;;;;;;4974090;28;19926;-68
2022/10/05 16:55:14;;;;;;;;;;;18.70;99.90;;;;;;4973849;28;19961;-65
2022/10/05 16:57:45;;;;;;;;;;;18.60;99.90;;;;;;4973939;28;20337;-70
2022/10/05 17:00:19;;;;;;;;;;;18.50;99.90;;;;;;4973419;28;19933;-65
2022/10/05 17:02:55;;;;;;;;;;;18.50;99.90;;;;;;4973575;28;19934;-65
2022/10/05 17:05:28;;;;;;;;;;;18.30;99.90;;;;;;4973552;28;20413;-66
2022/10/05 17:08:01;;;;;;;;;;;18.20;99.90;;;;;;4973712;28;19930;-68
2022/10/05 17:10:39;;;;;;;;;;;18.20;99.90;;;;;;4971237;28;19926;-64
2022/10/05 17:13:15;;;;;;;;;;;18.10;99.90;;;;;;4967701;28;19926;-65
2022/10/05 17:15:53;;;;;;;;;;;18.00;99.90;;;;;;4967304;28;19930;-65
2022/10/05 17:18:26;;;;;;;;;;;18.00;99.90;;;;;;4954092;29;20337;-65
2022/10/05 17:20:56;;;;;;;;;;;17.90;99.90;;;;;;4953956;29;20420;-67
2022/10/05 17:23:30;;;;;;;;;;;17.90;99.90;;;;;;4953856;29;19931;-65
2022/10/05 17:26:02;;;;;;;;;;;17.90;99.90;;;;;;4953594;29;19977;-65
2022/10/05 17:28:37;;;;;;;;;;;17.80;99.90;;;;;;4952949;29;19930;-66
2022/10/05 17:31:15;;;;;;;;;;;17.80;99.90;;;;;;4952886;28;19973;-65
2022/10/05 17:34:12;;;;;;;;;;;17.80;99.90;;;;;;4952751;29;19926;-65
2022/10/05 17:36:42;;;;;;;;;;;17.90;99.90;;;;;;4952733;29;19985;-65
2022/10/05 17:39:12;;;;;;;;;;;18.00;99.90;;;;;;4952328;29;19940;-65
2022/10/05 17:41:38;;;;;;;;;;;18.10;99.90;;;;;;4952576;29;19934;-64
2022/10/05 17:44:19;;;;;;;;;;;18.20;99.90;;;;;;4955346;28;19944;-69
2022/10/05 17:46:47;;;;;;;;;;;18.30;99.90;;;;;;4983127;28;19958;-65
2022/10/05 17:49:20;;;;;;;;;;;18.40;99.90;;;;;;4973312;28;19958;-68
2022/10/05 17:55:29;;;;;;;;;;;18.50;99.90;;;;;;4972786;28;19930;-68
2022/10/05 17:57:58;;;;;;;;;;;18.50;99.90;;;;;;4938038;28;19933;-65
2022/10/05 18:00:33;;;;;;;;;;;18.50;99.90;;;;;;4969163;28;19934;-68
2022/10/05 18:03:00;;;;;;;;;;;18.50;99.90;;;;;;4984219;28;19926;-66
2022/10/05 18:05:28;;;;;;;;;;;18.40;99.90;;;;;;4954345;29;20025;-67
2022/10/05 18:08:15;;;;;;;;;;;18.40;99.90;;;;;;4953985;29;20469;-67